Time;durP1;ratioP1;P1;durP2;ratioP2;P2;SDS_P1;SDS_P2;PMS_P1;PMS_P2;Temp;Humidity;BMP_temperature;BMP_pressure;BME280_temperature;BME280_humidity;BME280_pressure;Samples;Min_cycle;Max_cycle;Signal;HPM_P1;HPM_P2
2023/08/29 00:00:46;;;;;;;4.05;3.65;;;20.60;77.70;;;;;;4177776;28;20084;-55
2023/08/29 00:03:31;;;;;;;3.72;3.38;;;20.60;77.80;;;;;;4166842;28;20175;-55
2023/08/29 00:06:14;;;;;;;3.78;3.15;;;20.60;77.80;;;;;;4181912;28;20066;-52
2023/08/29 00:09:07;;;;;;;4.50;3.47;;;20.60;77.80;;;;;;4176020;28;20056;-54
2023/08/29 00:11:51;;;;;;;4.83;3.43;;;20.60;77.60;;;;;;4159926;28;20064;-57
2023/08/29 00:14:39;;;;;;;6.25;3.70;;;20.60;77.80;;;;;;4168024;28;20313;-57
2023/08/29 00:17:26;;;;;;;4.57;3.60;;;20.60;77.80;;;;;;4132722;28;20059;-55
2023/08/29 00:20:10;;;;;;;5.55;3.45;;;20.60;77.80;;;;;;4168678;28;20478;-55
2023/08/29 00:22:53;;;;;;;4.03;3.38;;;20.50;77.70;;;;;;4180822;28;20096;-53
2023/08/29 00:25:35;;;;;;;3.20;3.00;;;20.50;77.70;;;;;;4183342;28;20059;-54
2023/08/29 00:28:18;;;;;;;3.40;3.20;;;20.50;77.70;;;;;;4166839;28;20121;-43
2023/08/29 00:31:06;;;;;;;3.72;3.40;;;20.50;77.80;;;;;;4169303;28;20125;-46
2023/08/29 00:33:50;;;;;;;5.10;4.10;;;20.50;77.70;;;;;;4195514;28;20136;-41
2023/08/29 00:36:34;;;;;;;4.53;3.78;;;20.50;77.80;;;;;;4174810;28;20523;-42
2023/08/29 00:39:17;;;;;;;4.43;4.00;;;20.50;77.70;;;;;;4188195;27;20098;-42
2023/08/29 00:42:04;;;;;;;3.38;3.08;;;20.50;77.70;;;;;;4169195;28;20092;-43
2023/08/29 00:44:46;;;;;;;4.57;2.95;;;20.50;77.60;;;;;;4191019;28;20105;-43
2023/08/29 00:47:33;;;;;;;3.25;2.95;;;20.50;77.50;;;;;;4175776;28;20100;-43
2023/08/29 00:50:16;;;;;;;3.03;2.83;;;20.40;77.40;;;;;;4156675;28;20181;-44
2023/08/29 00:53:05;;;;;;;3.90;3.65;;;20.40;77.30;;;;;;4158873;28;20498;-43
2023/08/29 00:55:48;;;;;;;5.60;3.50;;;20.40;77.30;;;;;;4153781;28;20059;-43
2023/08/29 00:58:35;;;;;;;3.25;3.05;;;20.40;77.40;;;;;;4159531;28;20056;-43
2023/08/29 01:01:24;;;;;;;3.60;3.30;;;20.40;77.40;;;;;;4181027;28;20095;-42
2023/08/29 01:04:13;;;;;;;4.93;3.75;;;20.40;77.30;;;;;;4171400;28;20051;-43
2023/08/29 01:06:58;;;;;;;4.22;3.30;;;20.40;77.20;;;;;;4169662;28;20509;-42
2023/08/29 01:09:44;;;;;;;2.88;2.67;;;20.40;77.40;;;;;;4184334;28;20043;-43
2023/08/29 01:12:46;;;;;;;3.42;3.22;;;20.40;77.20;;;;;;4165818;28;20094;-43
2023/08/29 01:15:32;;;;;;;4.00;3.35;;;20.40;77.00;;;;;;4164178;28;20055;-43
2023/08/29 01:18:17;;;;;;;3.25;2.88;;;20.40;77.40;;;;;;4167640;28;20689;-43
2023/08/29 01:21:15;;;;;;;2.92;2.72;;;20.40;77.30;;;;;;4184962;28;20055;-43
2023/08/29 01:24:07;;;;;;;2.92;2.72;;;20.30;77.00;;;;;;4185424;28;20421;-43
2023/08/29 01:26:51;;;;;;;;;;;20.30;77.20;;;;;;4189491;28;20079;-43
2023/08/29 01:29:39;;;;;;;3.00;2.80;;;20.30;77.60;;;;;;4192215;28;19927;-42
2023/08/29 01:32:26;;;;;;;2.78;2.58;;;20.30;78.10;;;;;;4172990;28;20043;-42
2023/08/29 01:35:15;;;;;;;2.90;2.60;;;20.30;77.70;;;;;;4127419;28;20051;-43
2023/08/29 01:37:57;;;;;;;3.17;2.70;;;20.30;77.50;;;;;;4191929;28;20157;-43
2023/08/29 01:40:40;;;;;;;5.47;2.15;;;20.30;77.50;;;;;;4174532;28;20055;-43
2023/08/29 01:43:24;;;;;;;3.03;2.78;;;20.30;77.40;;;;;;4170401;28;20051;-42
2023/08/29 01:46:07;;;;;;;2.05;1.95;;;20.30;77.30;;;;;;4178182;28;20529;-42
2023/08/29 01:48:51;;;;;;;3.10;2.10;;;20.20;77.20;;;;;;4168230;28;20070;-43
2023/08/29 01:51:34;;;;;;;3.58;2.60;;;20.30;77.30;;;;;;4167253;27;20059;-43
2023/08/29 01:54:16;;;;;;;3.90;2.72;;;20.20;77.20;;;;;;4180054;28;20059;-43
2023/08/29 01:57:05;;;;;;;2.92;2.72;;;20.20;77.20;;;;;;4161756;28;20414;-43
2023/08/29 01:59:54;;;;;;;2.95;2.75;;;20.20;77.10;;;;;;4150954;28;20055;-43
2023/08/29 02:02:37;;;;;;;3.67;2.70;;;20.20;76.90;;;;;;4183083;28;20123;-43
2023/08/29 02:05:24;;;;;;;2.97;2.47;;;20.20;77.10;;;;;;4186879;28;20094;-43
2023/08/29 02:08:07;;;;;;;2.97;2.63;;;20.20;76.90;;;;;;4188716;28;20120;-43
2023/08/29 02:10:49;;;;;;;6.47;2.60;;;20.20;77.00;;;;;;4192101;28;20047;-43
2023/08/29 02:13:33;;;;;;;2.22;2.03;;;20.20;77.00;;;;;;4195128;28;20051;-43
2023/08/29 02:16:17;;;;;;;2.60;2.40;;;20.20;76.90;;;;;;4192789;28;20098;-42
2023/08/29 02:19:00;;;;;;;2.70;2.50;;;20.20;76.90;;;;;;4159608;27;20051;-43
2023/08/29 02:21:45;;;;;;;2.50;2.30;;;20.20;76.90;;;;;;4163077;28;20051;-52
2023/08/29 02:24:31;;;;;;;2.40;2.20;;;20.20;77.00;;;;;;4173370;28;20162;-54
2023/08/29 02:27:16;;;;;;;2.45;2.25;;;20.10;76.80;;;;;;4191537;28;20555;-54
2023/08/29 02:29:59;;;;;;;3.55;2.47;;;20.10;76.90;;;;;;4198750;28;20098;-42
2023/08/29 02:32:45;;;;;;;2.35;2.22;;;20.10;76.90;;;;;;4188884;28;20047;-43
2023/08/29 02:35:33;;;;;;;2.42;2.22;;;20.10;76.90;;;;;;4164906;28;20064;-42
2023/08/29 02:38:16;;;;;;;2.38;2.17;;;20.10;76.90;;;;;;4164637;28;20090;-43
2023/08/29 02:41:01;;;;;;;2.10;2.00;;;20.10;76.80;;;;;;4162205;28;20403;-43
2023/08/29 02:43:47;;;;;;;2.97;2.30;;;20.10;76.70;;;;;;4145973;28;20872;-42
2023/08/29 02:46:31;;;;;;;1.60;1.50;;;20.10;76.70;;;;;;4148866;28;20408;-41
2023/08/29 02:49:18;;;;;;;2.28;2.17;;;20.10;76.80;;;;;;4176688;28;20564;-42
2023/08/29 02:52:01;;;;;;;2.47;2.00;;;20.10;76.50;;;;;;4159628;28;20054;-42
2023/08/29 02:54:44;;;;;;;3.45;2.10;;;20.10;76.70;;;;;;4148787;28;20059;-56
2023/08/29 02:57:31;;;;;;;2.65;2.00;;;20.00;76.50;;;;;;4164949;28;20097;-57
2023/08/29 03:00:19;;;;;;;5.57;2.17;;;20.00;76.60;;;;;;4169822;28;20177;-53
2023/08/29 03:03:05;;;;;;;9.15;2.47;;;20.00;77.40;;;;;;4169559;28;20600;-57
2023/08/29 03:05:56;;;;;;;1.90;1.80;;;20.00;76.70;;;;;;4165589;28;20138;-55
2023/08/29 03:08:42;;;;;;;2.30;2.10;;;20.00;76.40;;;;;;4186365;28;20055;-55
2023/08/29 03:11:25;;;;;;;2.33;2.22;;;20.00;76.80;;;;;;4175614;28;20121;-56
2023/08/29 03:14:09;;;;;;;3.22;1.92;;;20.00;76.70;;;;;;4165590;28;20118;-56
2023/08/29 03:16:51;;;;;;;1.83;1.73;;;20.00;76.60;;;;;;4147051;28;20055;-55
2023/08/29 03:19:34;;;;;;;2.65;1.85;;;20.00;76.50;;;;;;4180782;28;20067;-54
2023/08/29 03:22:20;;;;;;;3.67;2.05;;;20.00;76.50;;;;;;4178109;28;20507;-57
2023/08/29 03:25:07;;;;;;;3.30;2.17;;;19.90;76.30;;;;;;4153453;28;20051;-53
2023/08/29 03:27:55;;;;;;;2.92;2.42;;;19.90;76.30;;;;;;4097187;28;20072;-43
2023/08/29 03:30:39;;;;;;;3.35;2.53;;;19.90;76.20;;;;;;4169683;28;20043;-43
2023/08/29 03:33:20;;;;;;;2.28;2.08;;;19.90;76.30;;;;;;4171604;28;20129;-43
2023/08/29 03:36:03;;;;;;;4.18;2.55;;;19.90;76.30;;;;;;4158213;28;20082;-42
2023/08/29 03:38:48;;;;;;;2.72;2.20;;;19.90;76.40;;;;;;4175440;28;20051;-42
2023/08/29 03:41:30;;;;;;;2.58;2.00;;;19.90;76.30;;;;;;4149961;28;20537;-43
2023/08/29 03:44:13;;;;;;;2.50;1.77;;;19.90;76.30;;;;;;4159235;28;20503;-43
2023/08/29 03:46:59;;;;;;;2.75;2.05;;;19.90;76.20;;;;;;4138021;28;20101;-42
2023/08/29 03:49:43;;;;;;;2.97;2.00;;;19.90;76.00;;;;;;4148299;28;20186;-54
2023/08/29 03:52:28;;;;;;;2.10;2.00;;;19.80;76.20;;;;;;4177984;28;20047;-55
2023/08/29 03:55:13;;;;;;;1.80;1.70;;;19.90;76.10;;;;;;4166058;28;20058;-53
2023/08/29 03:57:55;;;;;;;1.80;1.70;;;19.80;75.90;;;;;;4169342;28;20093;-55
2023/08/29 04:00:37;;;;;;;1.17;1.10;;;19.80;75.90;;;;;;4174406;28;20082;-54
2023/08/29 04:03:23;;;;;;;1.30;1.20;;;19.80;75.80;;;;;;4191078;28;20090;-54
2023/08/29 04:06:08;;;;;;;1.45;1.42;;;19.80;75.80;;;;;;4201386;28;20093;-54
2023/08/29 04:08:54;;;;;;;1.75;1.65;;;19.80;75.70;;;;;;4198490;28;20082;-56
2023/08/29 04:11:43;;;;;;;1.70;1.50;;;19.80;75.70;;;;;;4174441;28;20058;-55
2023/08/29 04:14:28;;;;;;;2.20;1.92;;;19.80;75.80;;;;;;4168936;28;20271;-53
2023/08/29 04:17:12;;;;;;;1.42;1.42;;;19.80;75.90;;;;;;4176075;28;20415;-53
2023/08/29 04:19:56;;;;;;;1.80;1.70;;;19.80;75.90;;;;;;4195637;28;20086;-54
2023/08/29 04:22:44;;;;;;;3.85;2.10;;;19.70;75.90;;;;;;4165552;28;20068;-56
2023/08/29 04:25:28;;;;;;;2.40;2.20;;;19.70;75.90;;;;;;4194440;28;20613;-54
2023/08/29 04:28:14;;;;;;;2.60;2.40;;;19.80;76.20;;;;;;4190021;28;20051;-55
2023/08/29 04:31:08;;;;;;;2.53;2.40;;;19.70;76.10;;;;;;4187463;28;20066;-54
2023/08/29 04:33:50;;;;;;;3.22;2.55;;;19.70;76.10;;;;;;4185968;28;20084;-55
2023/08/29 04:36:36;;;;;;;3.05;2.78;;;19.70;76.40;;;;;;4172050;28;20058;-55
2023/08/29 04:39:21;;;;;;;2.22;2.13;;;19.70;76.40;;;;;;4194541;28;20050;-55
2023/08/29 04:42:06;;;;;;;2.67;2.35;;;19.70;76.30;;;;;;4189399;28;20051;-54
2023/08/29 04:44:51;;;;;;;2.42;2.33;;;19.70;76.30;;;;;;4191622;27;20063;-57
2023/08/29 04:47:36;;;;;;;2.40;2.28;;;19.70;76.20;;;;;;4195024;28;20560;-56
2023/08/29 04:50:20;;;;;;;2.80;2.33;;;19.70;76.30;;;;;;4193169;28;20062;-56
2023/08/29 04:53:03;;;;;;;2.58;2.38;;;19.60;76.30;;;;;;4188991;28;20137;-54
2023/08/29 04:55:46;;;;;;;2.83;2.63;;;19.70;76.40;;;;;;4193520;28;20103;-55
2023/08/29 04:58:29;;;;;;;2.05;1.95;;;19.70;76.30;;;;;;4197292;28;20062;-55
2023/08/29 05:01:13;;;;;;;3.78;2.30;;;19.60;76.40;;;;;;4183741;28;20051;-55
2023/08/29 05:03:57;;;;;;;3.28;2.97;;;19.60;76.40;;;;;;4189744;28;20059;-42
2023/08/29 05:06:39;;;;;;;3.80;3.50;;;19.70;76.80;;;;;;4180193;28;20055;-42
2023/08/29 05:09:21;;;;;;;3.35;2.72;;;19.70;76.80;;;;;;4199211;28;20058;-42
2023/08/29 05:12:07;;;;;;;3.50;3.20;;;19.70;76.80;;;;;;4195431;28;20407;-42
2023/08/29 05:14:49;;;;;;;2.88;2.67;;;19.70;76.70;;;;;;4188731;28;20514;-40
2023/08/29 05:17:34;;;;;;;2.42;2.08;;;19.70;76.60;;;;;;4193900;28;20138;-42
2023/08/29 05:20:19;;;;;;;5.18;2.30;;;19.70;76.50;;;;;;4154861;28;20118;-42
2023/08/29 05:23:05;;;;;;;2.65;2.15;;;19.70;76.40;;;;;;4180425;28;20047;-42
2023/08/29 05:25:50;;;;;;;2.42;2.10;;;19.70;76.30;;;;;;4177238;28;20534;-41
2023/08/29 05:28:33;;;;;;;2.40;2.30;;;19.70;76.60;;;;;;4169394;28;20122;-42
2023/08/29 05:31:16;;;;;;;3.10;2.85;;;19.70;76.80;;;;;;4191285;28;20114;-42
2023/08/29 05:34:02;;;;;;;7.97;2.78;;;19.70;76.80;;;;;;4170636;28;20493;-42
2023/08/29 05:36:48;;;;;;;2.60;2.40;;;19.70;76.60;;;;;;4173651;28;20179;-41
2023/08/29 05:39:30;;;;;;;2.88;2.58;;;19.70;76.60;;;;;;4172831;28;20058;-58
2023/08/29 05:42:15;;;;;;;3.90;3.15;;;19.70;76.50;;;;;;4184413;28;20198;-56
2023/08/29 05:44:57;;;;;;;3.05;2.85;;;19.70;76.30;;;;;;4175269;28;20055;-57
2023/08/29 05:47:40;;;;;;;2.95;2.70;;;19.70;76.30;;;;;;4174972;28;20205;-56
2023/08/29 05:50:35;;;;;;;3.13;2.50;;;19.70;76.20;;;;;;4174095;28;20059;-56
2023/08/29 05:53:25;;;;;;;2.58;2.38;;;19.70;76.30;;;;;;4180298;28;20051;-55
2023/08/29 05:56:07;;;;;;;5.30;2.53;;;19.60;76.40;;;;;;4183605;28;20046;-56
2023/08/29 05:58:50;;;;;;;3.97;2.72;;;19.70;76.40;;;;;;4152213;28;20052;-54
2023/08/29 06:01:35;;;;;;;2.60;2.40;;;19.60;76.40;;;;;;4191616;28;20559;-54
2023/08/29 06:04:20;;;;;;;5.15;2.63;;;19.60;76.40;;;;;;4186146;28;20471;-42
2023/08/29 06:07:07;;;;;;;5.38;2.75;;;19.60;76.40;;;;;;4184593;28;20063;-42
2023/08/29 06:09:53;;;;;;;2.80;2.70;;;19.60;76.60;;;;;;4189589;28;20059;-42
2023/08/29 06:12:38;;;;;;;3.92;2.90;;;19.60;76.70;;;;;;4160446;28;20118;-55
2023/08/29 06:15:20;;;;;;;5.57;3.85;;;19.60;76.90;;;;;;4154567;28;20051;-56
2023/08/29 06:18:04;;;;;;;2.90;2.70;;;19.60;77.00;;;;;;4173423;28;20419;-57
2023/08/29 06:20:47;;;;;;;3.85;3.00;;;19.50;77.00;;;;;;4179439;28;20063;-55
2023/08/29 06:23:32;;;;;;;4.70;3.00;;;19.60;77.20;;;;;;4176935;28;20057;-56
2023/08/29 06:26:18;;;;;;;3.40;3.17;;;19.60;77.40;;;;;;4185700;28;20069;-42
2023/08/29 06:29:02;;;;;;;4.13;3.83;;;19.60;77.60;;;;;;4171366;28;20449;-43
2023/08/29 06:31:50;;;;;;;4.38;3.47;;;19.60;77.70;;;;;;4175638;28;20124;-55
2023/08/29 06:34:32;;;;;;;3.88;3.00;;;19.60;77.80;;;;;;4167910;28;20075;-54
2023/08/29 06:37:17;;;;;;;3.38;3.08;;;19.60;78.00;;;;;;4167352;28;20040;-56
2023/08/29 06:40:06;;;;;;;5.18;3.15;;;19.60;78.20;;;;;;4178635;28;20093;-53
2023/08/29 06:42:50;;;;;;;3.75;3.25;;;19.70;78.30;;;;;;4165224;28;20515;-54
2023/08/29 06:45:32;;;;;;;3.38;3.10;;;19.70;78.30;;;;;;4173934;28;20055;-55
2023/08/29 06:48:18;;;;;;;3.30;3.10;;;19.70;78.30;;;;;;4157870;28;20055;-55
2023/08/29 06:51:03;;;;;;;3.35;3.03;;;19.70;78.30;;;;;;4169137;28;20055;-56
2023/08/29 06:53:45;;;;;;;3.35;3.05;;;19.80;78.40;;;;;;4167111;28;20051;-55
2023/08/29 06:56:40;;;;;;;3.75;2.85;;;19.80;78.40;;;;;;4169491;28;20460;-54
2023/08/29 06:59:23;;;;;;;2.70;2.50;;;19.80;78.60;;;;;;4192682;28;20059;-56
2023/08/29 07:02:05;;;;;;;3.13;2.80;;;19.80;78.70;;;;;;4160553;28;20107;-53
2023/08/29 07:04:50;;;;;;;2.88;2.67;;;19.80;78.90;;;;;;4176445;28;20042;-53
2023/08/29 07:07:32;;;;;;;2.80;2.60;;;19.90;79.40;;;;;;4174394;28;20170;-56
2023/08/29 07:10:16;;;;;;;3.10;2.42;;;19.90;79.70;;;;;;4173693;28;20042;-53
2023/08/29 07:13:06;;;;;;;3.35;3.03;;;19.90;79.80;;;;;;4132191;28;20051;-49
2023/08/29 07:15:50;;;;;;;2.97;2.78;;;20.00;80.10;;;;;;4169127;28;20185;-53
2023/08/29 07:18:40;;;;;;;2.90;2.70;;;20.00;80.30;;;;;;4189631;28;20426;-55
2023/08/29 07:21:35;;;;;;;4.30;3.08;;;20.00;80.40;;;;;;4153713;28;20541;-56
2023/08/29 07:24:24;;;;;;;2.45;2.25;;;20.10;80.80;;;;;;4158511;28;20122;-52
2023/08/29 07:27:11;;;;;;;3.42;2.75;;;20.10;80.60;;;;;;4190099;28;20051;-55
2023/08/29 07:30:00;;;;;;;4.82;2.38;;;20.10;80.70;;;;;;4159042;27;20529;-42
2023/08/29 07:32:44;;;;;;;10.43;2.92;;;20.10;80.90;;;;;;4173808;28;20414;-43
2023/08/29 07:35:29;;;;;;;2.75;2.50;;;20.20;80.90;;;;;;4180108;28;20055;-43
2023/08/29 07:38:11;;;;;;;1.95;1.85;;;20.20;80.90;;;;;;4164684;28;20108;-43
2023/08/29 07:41:05;;;;;;;4.05;2.15;;;20.20;80.80;;;;;;4184015;28;20108;-43
2023/08/29 07:43:47;;;;;;;2.85;2.25;;;20.30;80.80;;;;;;4181559;28;20055;-42
2023/08/29 07:46:33;;;;;;;2.65;2.22;;;20.30;80.80;;;;;;4195091;28;20081;-42
2023/08/29 07:49:20;;;;;;;2.10;1.90;;;20.30;81.60;;;;;;4186197;28;20503;-41
2023/08/29 07:52:06;;;;;;;4.18;1.70;;;20.40;80.70;;;;;;4171071;28;20587;-42
2023/08/29 07:54:48;;;;;;;3.47;1.60;;;20.40;80.60;;;;;;4154716;28;20098;-43
2023/08/29 07:57:31;;;;;;;1.17;1.08;;;20.40;80.40;;;;;;4164643;28;20051;-45
2023/08/29 08:00:14;;;;;;;1.35;0.82;;;20.40;80.20;;;;;;4183237;28;20570;-42
2023/08/29 08:02:58;;;;;;;0.88;0.80;;;20.50;79.90;;;;;;4196776;28;20494;-43
2023/08/29 08:05:42;;;;;;;0.60;0.60;;;20.50;79.50;;;;;;4187317;28;20054;-43
2023/08/29 08:08:24;;;;;;;1.70;0.90;;;20.50;79.30;;;;;;4188714;28;20104;-43
2023/08/29 08:11:09;;;;;;;2.15;0.65;;;20.50;79.20;;;;;;4174655;28;20138;-43
2023/08/29 08:13:54;;;;;;;2.15;0.82;;;20.50;79.00;;;;;;4169523;28;20060;-43
2023/08/29 08:16:38;;;;;;;2.28;1.23;;;20.50;78.90;;;;;;4177232;28;20051;-43
2023/08/29 08:19:21;;;;;;;0.70;0.70;;;20.50;78.90;;;;;;4177060;28;20055;-43
2023/08/29 08:22:04;;;;;;;1.90;0.73;;;20.50;78.80;;;;;;4165271;28;20182;-43
2023/08/29 08:24:45;;;;;;;0.80;0.80;;;20.50;78.70;;;;;;4179313;28;20050;-43
2023/08/29 08:27:31;;;;;;;1.38;0.95;;;20.50;78.60;;;;;;4203716;28;20136;-43
2023/08/29 08:30:15;;;;;;;0.70;0.70;;;20.50;78.60;;;;;;4193112;28;20149;-43
2023/08/29 08:33:01;;;;;;;0.85;0.70;;;20.50;78.40;;;;;;4150549;28;20055;-43
2023/08/29 08:35:49;;;;;;;1.88;1.25;;;20.40;78.30;;;;;;4184399;28;20096;-43
2023/08/29 08:38:40;;;;;;;1.83;1.00;;;20.40;78.30;;;;;;4175501;28;20047;-43
2023/08/29 08:41:22;;;;;;;1.02;0.75;;;20.50;78.30;;;;;;4178368;28;20042;-43
2023/08/29 08:44:15;;;;;;;1.23;0.80;;;20.50;78.10;;;;;;4169527;28;20148;-43
2023/08/29 08:47:06;;;;;;;1.15;0.70;;;20.50;77.70;;;;;;4188255;28;20173;-43
2023/08/29 08:49:52;;;;;;;2.17;0.90;;;20.50;77.60;;;;;;4181451;28;20051;-43
2023/08/29 08:52:36;;;;;;;1.55;0.70;;;20.50;77.20;;;;;;4145555;28;20196;-44
2023/08/29 08:55:18;;;;;;;1.75;0.80;;;20.50;77.40;;;;;;4174161;28;20069;-55
2023/08/29 08:58:06;;;;;;;2.10;0.93;;;20.50;77.60;;;;;;4170825;28;20051;-43
2023/08/29 09:00:53;;;;;;;0.77;0.77;;;20.50;77.70;;;;;;4186186;28;20055;-43
2023/08/29 09:03:35;;;;;;;0.50;0.50;;;20.50;77.50;;;;;;4181091;28;20098;-43
2023/08/29 09:06:17;;;;;;;0.60;0.60;;;20.60;78.20;;;;;;4175030;28;20133;-43
2023/08/29 09:09:23;;;;;;;1.60;0.50;;;20.60;77.20;;;;;;4150062;28;20047;-55
2023/08/29 09:12:05;;;;;;;0.82;0.80;;;20.60;76.90;;;;;;4190521;28;20162;-54
2023/08/29 09:14:47;;;;;;;0.50;0.50;;;20.70;77.70;;;;;;4207033;28;20043;-54
2023/08/29 09:17:28;;;;;;;;;;;20.70;76.50;;;;;;4198690;28;20059;-53
2023/08/29 09:20:14;;;;;;;0.85;0.50;;;20.70;76.30;;;;;;4192301;28;19947;-52
2023/08/29 09:22:57;;;;;;;1.33;0.65;;;20.80;76.40;;;;;;4182461;28;20104;-56
2023/08/29 09:25:42;;;;;;;1.05;0.70;;;20.70;76.20;;;;;;4201297;28;20051;-53
2023/08/29 09:28:30;;;;;;;0.70;0.40;;;20.70;76.30;;;;;;4200192;28;20548;-58
2023/08/29 09:31:12;;;;;;;0.93;0.70;;;20.80;76.20;;;;;;4197140;28;20457;-51
2023/08/29 09:33:53;;;;;;;3.22;1.00;;;20.80;76.00;;;;;;4197698;28;20173;-53
2023/08/29 09:36:36;;;;;;;1.50;0.65;;;20.80;76.20;;;;;;4149237;28;20062;-43
2023/08/29 09:39:18;;;;;;;1.83;0.90;;;20.90;76.40;;;;;;4181832;28;20614;-42
2023/08/29 09:42:05;;;;;;;0.95;0.65;;;20.90;76.20;;;;;;4182383;28;20047;-51
2023/08/29 09:44:49;;;;;;;3.20;0.93;;;20.90;76.20;;;;;;4187196;28;20051;-51
2023/08/29 09:47:31;;;;;;;1.42;0.70;;;20.90;76.50;;;;;;4174794;28;20054;-44
2023/08/29 09:50:12;;;;;;;1.50;0.90;;;20.90;76.50;;;;;;4196680;28;20159;-44
2023/08/29 09:52:59;;;;;;;1.23;0.52;;;21.00;76.50;;;;;;4195406;28;20055;-55
2023/08/29 09:55:48;;;;;;;1.38;0.80;;;21.00;76.30;;;;;;4169164;28;20141;-54
2023/08/29 09:58:34;;;;;;;0.60;0.60;;;21.00;76.20;;;;;;4197015;28;20051;-57
2023/08/29 10:01:20;;;;;;;2.63;0.68;;;21.00;76.10;;;;;;4198163;27;20070;-43
2023/08/29 10:04:06;;;;;;;4.97;1.10;;;21.10;75.60;;;;;;4190775;28;20102;-45
2023/08/29 10:06:51;;;;;;;1.55;1.25;;;21.10;75.20;;;;;;4192735;28;20108;-53
2023/08/29 10:09:33;;;;;;;3.25;1.45;;;21.20;75.30;;;;;;4189704;28;20113;-54
2023/08/29 10:12:15;;;;;;;1.65;1.10;;;21.20;75.40;;;;;;4175653;28;20051;-52
2023/08/29 10:14:59;;;;;;;2.85;1.30;;;21.20;75.50;;;;;;4183550;28;20185;-53
2023/08/29 10:17:42;;;;;;;1.38;1.23;;;21.20;75.10;;;;;;4202907;28;20610;-52
2023/08/29 10:20:25;;;;;;;1.70;1.08;;;21.20;74.90;;;;;;4200112;28;20051;-54
2023/08/29 10:23:09;;;;;;;1.00;1.00;;;21.20;74.80;;;;;;4210136;28;20125;-53
2023/08/29 10:25:52;;;;;;;1.00;1.00;;;21.30;75.00;;;;;;4177472;28;20536;-56
2023/08/29 10:28:35;;;;;;;1.08;1.02;;;21.30;75.00;;;;;;4176332;28;20081;-51
2023/08/29 10:31:22;;;;;;;1.88;0.90;;;21.30;75.20;;;;;;4183424;28;20055;-43
2023/08/29 10:34:06;;;;;;;0.80;0.80;;;21.30;74.80;;;;;;4183797;28;20055;-44
2023/08/29 10:36:51;;;;;;;1.08;1.00;;;21.30;74.90;;;;;;4199331;28;20148;-44
2023/08/29 10:39:33;;;;;;;2.05;1.15;;;21.40;75.00;;;;;;4188486;28;20067;-44
2023/08/29 10:42:15;;;;;;;1.65;1.30;;;21.40;75.00;;;;;;4200452;28;20047;-44
2023/08/29 10:44:56;;;;;;;1.90;0.70;;;21.40;74.90;;;;;;4200049;28;20055;-43
2023/08/29 10:47:47;;;;;;;0.85;0.70;;;21.40;74.60;;;;;;4199247;28;20054;-43
2023/08/29 10:50:28;;;;;;;1.23;0.60;;;21.40;74.30;;;;;;4195046;28;20057;-43
2023/08/29 10:53:19;;;;;;;0.85;0.60;;;21.40;74.40;;;;;;4189776;28;20124;-54
2023/08/29 10:56:03;;;;;;;;;;;21.50;74.00;;;;;;4193802;28;20540;-43
2023/08/29 10:58:47;;;;;;;0.73;0.73;;;21.50;74.20;;;;;;4200799;28;19973;-43
2023/08/29 11:01:31;;;;;;;1.75;0.80;;;21.50;74.10;;;;;;4196471;28;20050;-43
2023/08/29 11:04:14;;;;;;;0.68;0.68;;;21.50;73.90;;;;;;4199811;28;20055;-43
2023/08/29 11:07:00;;;;;;;0.80;0.73;;;21.50;73.10;;;;;;4200266;28;20097;-44
2023/08/29 11:09:45;;;;;;;1.17;0.95;;;21.60;73.10;;;;;;4200775;28;20059;-43
2023/08/29 11:12:26;;;;;;;0.73;0.73;;;21.60;73.90;;;;;;4200616;28;20051;-47
2023/08/29 11:15:08;;;;;;;0.65;0.60;;;21.60;73.80;;;;;;4183688;28;20129;-43
2023/08/29 11:18:19;;;;;;;1.20;0.60;;;21.60;72.60;;;;;;4186724;28;20109;-43
2023/08/29 11:21:09;;;;;;;1.20;0.93;;;21.60;71.70;;;;;;4160457;28;21029;-43
2023/08/29 11:23:51;;;;;;;1.00;0.82;;;21.60;71.80;;;;;;4188670;28;20075;-44
2023/08/29 11:26:58;;;;;;;1.95;0.90;;;21.70;72.20;;;;;;4185718;28;20510;-43
2023/08/29 11:29:39;;;;;;;0.75;0.75;;;21.70;72.50;;;;;;4188132;28;20055;-44
2023/08/29 11:32:21;;;;;;;;;;;21.70;72.60;;;;;;4181207;28;20452;-44
2023/08/29 11:35:04;;;;;;;1.90;1.10;;;21.70;72.70;;;;;;4181641;28;19931;-44
2023/08/29 11:37:47;;;;;;;1.00;1.00;;;21.70;72.50;;;;;;4182794;28;20051;-44
2023/08/29 11:40:29;;;;;;;4.80;1.77;;;21.70;72.10;;;;;;4187844;28;20411;-43
2023/08/29 11:43:29;;;;;;;1.83;1.60;;;21.80;72.20;;;;;;4179918;28;20094;-44
2023/08/29 11:46:32;;;;;;;3.70;1.33;;;21.80;72.30;;;;;;4192000;28;20055;-45
2023/08/29 11:49:19;;;;;;;1.35;1.25;;;21.80;72.10;;;;;;4185896;28;20067;-43
2023/08/29 11:52:01;;;;;;;2.60;1.55;;;21.80;72.10;;;;;;4185401;28;20059;-44
2023/08/29 11:54:52;;;;;;;1.38;1.30;;;21.80;71.90;;;;;;4178680;28;20589;-43
2023/08/29 11:57:35;;;;;;;3.45;1.40;;;21.90;71.70;;;;;;4191525;28;20133;-44
2023/08/29 12:00:18;;;;;;;1.92;1.50;;;21.90;71.60;;;;;;4183780;28;20051;-43
2023/08/29 12:03:00;;;;;;;1.30;1.20;;;21.90;71.00;;;;;;4193367;28;20077;-44
2023/08/29 12:05:42;;;;;;;;;;;21.90;71.10;;;;;;4190437;28;20136;-43
2023/08/29 12:08:38;;;;;;;1.35;1.25;;;21.90;71.30;;;;;;4175735;28;19930;-44
2023/08/29 12:11:24;;;;;;;1.50;1.40;;;21.90;70.50;;;;;;4195811;28;20125;-54
2023/08/29 12:14:07;;;;;;;1.52;1.42;;;21.90;70.50;;;;;;4180943;28;20055;-54
2023/08/29 12:16:53;;;;;;;2.13;1.40;;;21.90;70.20;;;;;;4186666;28;20590;-54
2023/08/29 12:19:35;;;;;;;1.20;1.10;;;21.90;70.00;;;;;;4191315;28;20070;-55
2023/08/29 12:22:21;;;;;;;1.30;1.20;;;21.90;70.20;;;;;;4187132;28;20083;-54
2023/08/29 12:25:02;;;;;;;2.35;1.30;;;21.90;69.70;;;;;;4186985;28;20056;-53
2023/08/29 12:27:49;;;;;;;2.25;1.20;;;21.90;69.70;;;;;;4194173;28;20144;-44
2023/08/29 12:30:31;;;;;;;1.52;1.38;;;21.90;69.70;;;;;;4182993;28;20097;-44
2023/08/29 12:33:12;;;;;;;2.78;1.52;;;21.90;69.70;;;;;;4184571;28;20069;-45
2023/08/29 12:35:55;;;;;;;1.38;1.27;;;21.90;69.60;;;;;;4183344;28;20194;-44
2023/08/29 12:38:37;;;;;;;3.63;1.40;;;21.90;70.00;;;;;;4183996;28;20407;-44
2023/08/29 12:41:18;;;;;;;1.70;1.58;;;21.80;70.20;;;;;;4188427;28;20055;-44
2023/08/29 12:44:03;;;;;;;1.85;1.58;;;21.80;70.20;;;;;;4183927;28;20097;-45
2023/08/29 12:46:44;;;;;;;2.38;2.10;;;21.80;70.10;;;;;;4179319;28;20054;-46
2023/08/29 12:49:25;;;;;;;1.65;1.40;;;21.80;70.30;;;;;;4195247;28;20059;-45
2023/08/29 12:52:10;;;;;;;5.35;1.80;;;21.80;70.30;;;;;;4180692;28;20055;-44
2023/08/29 12:54:52;;;;;;;2.17;1.95;;;21.80;70.60;;;;;;4201501;28;20100;-43
2023/08/29 12:57:34;;;;;;;2.22;1.60;;;21.90;70.10;;;;;;4169351;28;20097;-44
2023/08/29 13:00:18;;;;;;;;;;;21.80;70.00;;;;;;4184446;28;20059;-43
2023/08/29 13:03:00;;;;;;;2.00;1.90;;;21.90;70.90;;;;;;4180811;28;20081;-45
2023/08/29 13:05:41;;;;;;;;;;;21.80;71.40;;;;;;4191151;28;20132;-44
2023/08/29 13:08:25;;;;;;;3.08;2.03;;;21.80;71.40;;;;;;4193639;28;19985;-44
2023/08/29 13:11:06;;;;;;;1.77;1.67;;;21.80;71.50;;;;;;4174523;28;20043;-44
2023/08/29 13:13:50;;;;;;;3.45;2.28;;;21.80;71.00;;;;;;4169677;28;20506;-55
2023/08/29 13:16:34;;;;;;;1.92;1.70;;;21.80;71.00;;;;;;4175112;28;20047;-55
2023/08/29 13:19:15;;;;;;;2.10;1.90;;;21.80;71.20;;;;;;4177453;28;20133;-44
2023/08/29 13:21:57;;;;;;;2.25;2.05;;;21.80;71.10;;;;;;4187257;28;20097;-43
2023/08/29 13:24:50;;;;;;;2.08;1.92;;;21.90;71.70;;;;;;4184931;28;20056;-43
2023/08/29 13:27:32;;;;;;;2.15;2.05;;;21.90;70.60;;;;;;4182988;28;20052;-51
2023/08/29 13:30:14;;;;;;;1.77;1.67;;;21.90;70.40;;;;;;4183495;28;20060;-54
2023/08/29 13:32:57;;;;;;;4.60;2.20;;;21.90;70.20;;;;;;4194776;28;20072;-55
2023/08/29 13:35:39;;;;;;;2.10;1.88;;;21.90;70.00;;;;;;4174712;28;20608;-55
2023/08/29 13:38:21;;;;;;;2.30;1.80;;;21.90;70.00;;;;;;4190281;28;20059;-51
2023/08/29 13:41:03;;;;;;;3.15;1.80;;;21.90;69.70;;;;;;4193892;28;20069;-52
2023/08/29 13:43:45;;;;;;;2.88;2.13;;;21.90;70.10;;;;;;4198770;28;20076;-54
2023/08/29 13:46:27;;;;;;;18.90;3.20;;;21.90;71.30;;;;;;4199889;28;20047;-51
2023/08/29 13:49:11;;;;;;;4.63;1.80;;;22.00;71.20;;;;;;4201104;28;20055;-54
2023/08/29 13:51:53;;;;;;;8.80;1.90;;;22.00;71.60;;;;;;4201582;28;20139;-55
2023/08/29 13:54:38;;;;;;;1.60;1.50;;;22.00;71.70;;;;;;4181454;28;20130;-52
2023/08/29 13:57:23;;;;;;;2.08;1.98;;;22.10;71.80;;;;;;4196170;28;20097;-53
2023/08/29 14:00:05;;;;;;;1.92;1.83;;;22.10;71.40;;;;;;4179080;28;20043;-54
2023/08/29 14:02:55;;;;;;;2.05;1.48;;;22.00;71.20;;;;;;4195616;28;20084;-53
2023/08/29 14:05:42;;;;;;;2.47;1.80;;;22.10;71.70;;;;;;4178438;28;20047;-54
2023/08/29 14:08:24;;;;;;;2.08;1.70;;;22.10;72.00;;;;;;4180907;28;20494;-53
2023/08/29 14:11:12;;;;;;;1.95;1.60;;;22.10;71.60;;;;;;4181230;28;20113;-54
2023/08/29 14:13:54;;;;;;;1.98;1.83;;;22.10;71.60;;;;;;4176050;28;20059;-55
2023/08/29 14:16:36;;;;;;;6.20;2.17;;;22.10;71.50;;;;;;4183632;28;20047;-44
2023/08/29 14:19:18;;;;;;;2.20;2.10;;;22.20;72.60;;;;;;4184388;28;20106;-44